Latest Coastal Weather Observations for Minlaton Airport

IDS60701

Issued at 9:21 am CST Saturday 20 April 2024 (issued every 10 minutes, with the page automatically refreshed every 10 minutes)

About coastal observations | Map of coastal stations | Coastal observations for SA | Marine services | Other Formats
Station Details ID: 022031 Name: MINLATON AERO Lat: -34.75 Lon: 137.53 Height: 32.0 m
Data from the previous 72 hours. | See also: Recent months at Minlaton Airport
Date/Time
CST
Wind Sea
Height
m
Swell Vis
km
Cloud Weather Temp
°C
Press
MSL
hPa
Rain since
9am
mm
Dir  Spd
kts
Gust
kts
Height
m
Period
s
Dir
20/09:00am ESE 13 17 - - - - - - - 17.1 1032.0 0.0
20/08:30am ESE 13 15 - - - - - - - 16.0 1031.8 0.0
20/08:00am E 10 13 - - - - - - - 15.3 1031.4 0.0
20/07:30am ESE 8 11 - - - - - - - 14.3 1030.9 0.0
20/07:00am SE 7 8 - - - - - - - 13.3 1030.5 0.0
20/06:30am SE 9 11 - - - - - - - 13.0 1030.3 0.0
20/06:00am SE 9 11 - - - - - - - 12.1 1030.3 0.0
20/05:30am SE 10 11 - - - - - - - 11.3 1030.2 0.0
20/05:00am SE 10 11 - - - - - - - 10.8 1030.1 0.0
20/04:30am SE 10 11 - - - - - - - 10.7 1029.8 0.0
20/04:00am SE 10 10 - - - - - - - 10.5 1029.5 0.0
20/03:30am SE 10 11 - - - - - - - 10.1 1029.3 0.0
20/03:00am SE 8 9 - - - - - - - 8.6 1029.1 0.0
20/02:30am ESE 7 9 - - - - - - - 9.4 1029.4 0.0
20/02:00am SE 8 9 - - - - - - - 9.8 1029.5 0.0
20/01:30am SE 7 8 - - - - - - - 11.3 1029.7 0.0
20/01:00am SE 7 9 - - - - - - - 13.3 1029.8 0.0
20/12:30am SE 7 9 - - - - - - - 13.0 1029.6 0.0
20/12:00am SE 10 12 - - - - - - - 12.5 1029.7 0.0
 
Date/Time
CST
Wind Sea
Height
m
Swell Vis
km
Cloud Weather Temp
°C
Press
MSL
hPa
Rain since
9am
mm
Dir  Spd
kts
Gust
kts
Height
m
Period
s
Dir
19/11:30pm SE 10 11 - - - - - - - 12.4 1029.7 0.0
19/11:00pm SE 10 11 - - - - - - - 12.4 1029.6 0.0
19/10:30pm SE 9 11 - - - - - - - 12.8 1029.8 0.0
19/10:00pm SE 8 11 - - - - - - - 13.7 1029.9 0.0
19/09:30pm SE 7 9 - - - - - - - 15.1 1029.8 0.0
19/09:00pm SE 12 15 - - - - - - - 15.5 1029.5 0.0
19/08:30pm SSE 14 22 - - - - - - - 15.6 1029.1 0.0
19/08:00pm SSE 13 18 - - - - - - - 15.4 1029.0 0.0
19/07:30pm SSE 11 15 - - - - - - - 15.1 1028.8 0.0
19/07:00pm SSE 15 21 - - - - - - - 15.1 1028.6 0.0
19/06:30pm SSE 15 21 - - - - - - - 15.8 1028.2 0.0
19/06:00pm SSE 13 17 - - - - - - - 16.0 1027.9 0.0
19/05:30pm SSE 14 18 - - - - - - - 15.9 1027.4 0.0
19/05:00pm SSE 19 24 - - - - - - - 16.4 1027.3 0.0
19/04:30pm SSE 15 21 - - - - - - - 17.1 1027.0 0.0
19/04:00pm SSE 15 21 - - - - - - - 17.7 1027.0 0.0
19/03:30pm S 19 24 - - - - - - - 17.9 1026.7 0.0
19/03:00pm SSE 18 26 - - - - - - - 18.6 1026.3 0.0
19/02:30pm SE 19 29 - - - - - - - 19.6 1026.0 0.0
19/02:00pm SSE 17 25 - - - - - - - 19.2 1026.1 0.0
19/01:30pm SSE 16 22 - - - - - - - 19.7 1026.0 0.0
19/01:00pm SSE 17 23 - - - - - - - 19.1 1026.0 0.0
19/12:30pm SE 15 21 - - - - - - - 20.3 1026.2 0.0
19/12:00pm SE 17 23 - - - - - - - 19.0 1026.5 0.0
19/11:30am SSE 14 19 - - - - - - - 19.1 1026.7 0.0
19/11:00am SE 15 23 - - - - - - - 18.9 1026.6 0.0
19/10:30am SSE 15 22 - - - - - - - 17.6 1026.4 0.0
19/10:00am SE 14 18 - - - - - - - 17.5 1026.1 0.0
19/09:30am SSE 12 18 - - - - - - - 16.4 1026.1 0.0
19/09:00am SSE 11 14 - - - - - - - 15.5 1026.1 0.2
19/08:30am SSE 11 15 - - - - - - - 14.4 1026.1 0.2
19/08:00am S 8 9 - - - - - - - 13.6 1025.7 0.2
19/07:30am SSE 8 10 - - - - - - - 13.2 1025.3 0.2
19/07:00am S 8 10 - - - - - - - 12.0 1025.2 0.2
19/06:30am S 10 12 - - - - - - - 10.5 1024.8 0.2
19/06:00am SSW 6 8 - - - - - - - 10.8 1024.5 0.2
19/05:30am S 10 11 - - - - - - - 12.2 1024.2 0.2
19/05:00am S 11 15 - - - - - - - 13.5 1023.8 0.2
19/04:30am S 14 18 - - - - - - - 14.1 1023.7 0.2
19/04:00am S 13 18 - - - - - - - 14.3 1023.1 0.2
19/03:30am S 17 25 - - - - - - - 14.5 1023.1 0.0
19/03:00am SW 12 16 - - - - - - - 15.4 1022.9 0.0
19/02:30am SW 12 15 - - - - - - - 15.5 1023.0 0.0
19/02:00am SW 12 15 - - - - - - - 15.9 1023.3 0.0
19/01:30am SW 11 14 - - - - - - - 15.7 1023.6 0.0
19/01:00am SW 13 17 - - - - - - - 15.7 1023.8 0.0
19/12:30am SW 10 14 - - - - - - - 15.6 1023.8 0.0
19/12:00am SW 11 13 - - - - - - - 15.6 1024.2 0.0
 
Date/Time
CST
Wind Sea
Height
m
Swell Vis
km
Cloud Weather Temp
°C
Press
MSL
hPa
Rain since
9am
mm
Dir  Spd
kts
Gust
kts
Height
m
Period
s
Dir
18/11:30pm SW 9 11 - - - - - - - 15.3 1024.5 0.0
18/11:00pm WSW 9 12 - - - - - - - 14.8 1024.8 0.0
18/10:30pm SW 17 22 - - - - - - - 15.6 1025.2 0.0
18/10:00pm SW 10 13 - - - - - - - 15.8 1025.4 0.0
18/09:30pm SW 11 14 - - - - - - - 15.7 1025.4 0.0
18/09:00pm SW 11 13 - - - - - - - 15.5 1025.4 0.0
18/08:30pm SW 12 16 - - - - - - - 15.6 1025.3 0.0
18/08:00pm SW 13 15 - - - - - - - 15.5 1025.2 0.0
18/07:30pm SW 12 15 - - - - - - - 15.4 1025.2 0.0
18/07:00pm SW 12 16 - - - - - - - 15.8 1025.2 0.0
18/06:30pm SW 15 19 - - - - - - - 15.9 1024.9 0.0
18/06:00pm SW 15 21 - - - - - - - 16.2 1025.1 0.0
18/05:30pm SW 16 19 - - - - - - - 16.7 1025.0 0.0
18/05:00pm SW 15 19 - - - - - - - 16.9 1025.1 0.0
18/04:30pm WSW 15 18 - - - - - - - 16.6 1025.3 0.0
18/04:00pm WSW 16 20 - - - - - - - 16.0 1025.6 0.0
18/03:30pm SW 17 22 - - - - - - - 18.1 1025.4 0.0
18/03:00pm WSW 15 18 - - - - - - - 16.9 1025.9 0.0
18/02:30pm WSW 17 22 - - - - - - - 17.7 1025.8 0.0
18/02:00pm WSW 17 23 - - - - - - - 18.3 1026.0 0.0
18/01:30pm W 15 19 - - - - - - - 18.3 1026.4 0.0
18/01:00pm W 15 19 - - - - - - - 18.5 1026.7 0.0
18/12:30pm WSW 11 16 - - - - - - - 17.9 1027.1 0.0
18/12:00pm SW 10 14 - - - - - - - 17.2 1027.7 0.0
18/11:30am SSW 12 16 - - - - - - - 17.4 1027.9 0.0
18/11:00am SW 8 12 - - - - - - - 17.6 1028.1 0.0
18/10:30am SW 10 14 - - - - - - - 16.7 1028.1 0.0
18/10:00am SW 11 14 - - - - - - - 16.5 1028.2 0.0
18/09:30am SW 10 13 - - - - - - - 16.3 1028.3 0.0
18/09:00am SW 4 6 - - - - - - - 15.6 1028.5 0.0
18/08:30am S 5 6 - - - - - - - 15.1 1028.5 0.0
18/08:00am SSE 3 4 - - - - - - - 13.9 1028.2 0.0
18/07:30am SSE 4 5 - - - - - - - 13.0 1028.1 0.0
18/07:00am S 7 8 - - - - - - - 12.5 1027.9 0.0
18/06:30am S 6 10 - - - - - - - 12.4 1027.5 0.0
18/06:00am SSE 7 7 - - - - - - - 12.1 1027.3 0.0
18/05:30am SSE 6 7 - - - - - - - 11.7 1027.1 0.0
18/05:00am SSE 6 7 - - - - - - - 11.7 1027.0 0.0
18/04:30am S 6 7 - - - - - - - 10.8 1027.0 0.0
18/04:00am SSE 7 9 - - - - - - - 9.2 1026.9 0.0
18/03:30am S 8 9 - - - - - - - 9.4 1026.9 0.0
18/03:00am SSE 9 9 - - - - - - - 9.7 1027.1 0.0
18/02:30am S 8 9 - - - - - - - 9.8 1027.3 0.0
18/02:00am SSE 7 8 - - - - - - - 11.1 1027.5 0.0
18/01:30am S 7 9 - - - - - - - 10.9 1027.9 0.0
18/01:00am SSE 7 8 - - - - - - - 11.2 1027.9 0.0
18/12:30am S 8 9 - - - - - - - 11.7 1028.0 0.0
18/12:00am SSE 8 9 - - - - - - - 11.0 1028.0 0.0
 
Date/Time
CST
Wind Sea
Height
m
Swell Vis
km
Cloud Weather Temp
°C
Press
MSL
hPa
Rain since
9am
mm
Dir  Spd
kts
Gust
kts
Height
m
Period
s
Dir
17/11:30pm SSE 9 11 - - - - - - - 11.4 1028.2 0.0
17/11:00pm SE 9 11 - - - - - - - 11.8 1028.4 0.0
17/10:30pm SSE 9 11 - - - - - - - 11.6 1028.7 0.0
17/10:00pm SE 10 11 - - - - - - - 12.1 1028.8 0.0
17/09:30pm SE 9 11 - - - - - - - 12.1 1028.7 0.0
17/09:00pm SSE 10 11 - - - - - - - 12.1 1028.6 0.0
17/08:30pm SSE 11 13 - - - - - - - 12.4 1028.5 0.0
17/08:00pm SSE 10 11 - - - - - - - 12.4 1028.4 0.0
17/07:30pm SSE 9 11 - - - - - - - 12.1 1028.2 0.0
17/07:00pm SSE 8 10 - - - - - - - 12.5 1028.1 0.0
17/06:30pm SSE 8 10 - - - - - - - 13.7 1027.6 0.0
17/06:00pm SSE 8 11 - - - - - - - 14.7 1027.3 0.0
17/05:30pm SSE 12 16 - - - - - - - 16.5 1027.0 0.0
17/05:00pm SSE 13 17 - - - - - - - 17.8 1026.7 0.0
17/04:30pm SSE 14 19 - - - - - - - 17.7 1026.7 0.0
17/04:00pm S 14 19 - - - - - - - 19.0 1026.7 0.0
17/03:30pm S 15 21 - - - - - - - 19.2 1026.7 0.0
17/03:00pm S 14 19 - - - - - - - 20.3 1026.8 0.0
17/02:30pm SSE 13 17 - - - - - - - 19.1 1026.9 0.0
17/02:00pm SSE 13 17 - - - - - - - 19.4 1027.0 0.0
17/01:30pm SE 14 17 - - - - - - - 19.0 1027.2 0.0
17/01:00pm SSE 13 17 - - - - - - - 18.2 1027.8 0.0
17/12:30pm SE 13 16 - - - - - - - 18.8 1028.1 0.0
17/12:00pm SSE 10 15 - - - - - - - 18.6 1028.3 0.0
17/11:30am SE 10 17 - - - - - - - 19.1 1028.6 0.0
17/11:00am SE 9 12 - - - - - - - 18.3 1028.8 0.0
17/10:30am ESE 9 14 - - - - - - - 17.7 1028.9 0.0
17/10:00am SE 8 10 - - - - - - - 16.7 1029.0 0.0
17/09:30am ENE 7 9 - - - - - - - 17.7 1028.9 0.0

Other formats

Comma delimited format used in spreadsheet applications
http://www.bom.gov.au/fwo/IDS60701/IDS60701.95659.axf

JavaScript Object Notation format (JSON) in row-major order
http://www.bom.gov.au/fwo/IDS60701/IDS60701.95659.json

Data quality

Most of these data are generated automatically and are frequently updated. Quality checks on data are not normally performed. It is possible for incorrect values to appear. Refer to information at About Latest Weather Observations and please check the disclaimer before using these data.